Time;durP1;ratioP1;P1;durP2;ratioP2;P2;SDS_P1;SDS_P2;PMS_P1;PMS_P2;Temp;Humidity;BMP_temperature;BMP_pressure;BME280_temperature;BME280_humidity;BME280_pressure;Samples;Min_cycle;Max_cycle;Signal;HPM_P1;HPM_P2
2022/07/17 00:00:22;;;;;;;9.88;1.92;;;12.70;99.90;;;;;;4931416;28;206088;-66
2022/07/17 00:02:48;;;;;;;10.07;2.00;;;12.70;99.90;;;;;;4984043;28;20413;-68
2022/07/17 00:05:15;;;;;;;8.52;2.25;;;12.60;99.90;;;;;;4945002;28;222314;-69
2022/07/17 00:07:41;;;;;;;10.88;2.20;;;12.60;99.90;;;;;;4919294;28;225069;-68
2022/07/17 00:10:08;;;;;;;14.45;2.22;;;12.60;99.90;;;;;;4963898;28;272834;-68
2022/07/17 00:12:34;;;;;;;10.65;2.03;;;12.50;99.90;;;;;;4933845;28;115524;-68
2022/07/17 00:15:01;;;;;;;14.63;2.10;;;12.50;99.90;;;;;;4961968;28;264291;-67
2022/07/17 00:17:27;;;;;;;10.95;2.13;;;12.50;99.90;;;;;;4927276;28;208132;-67
2022/07/17 00:19:53;;;;;;;10.13;2.47;;;12.50;99.90;;;;;;4956900;28;181030;-67
2022/07/17 00:22:20;;;;;;;9.52;2.08;;;12.40;99.90;;;;;;4914269;28;207668;-68
2022/07/17 00:24:46;;;;;;;10.65;2.10;;;12.40;99.90;;;;;;4955167;28;255070;-68
2022/07/17 00:27:12;;;;;;;11.05;2.38;;;12.40;99.90;;;;;;4951350;28;207012;-67
2022/07/17 00:29:38;;;;;;;9.77;2.15;;;12.30;99.90;;;;;;4961735;28;20727;-68
2022/07/17 00:32:05;;;;;;;10.57;2.20;;;12.30;99.90;;;;;;4934439;28;208893;-68
2022/07/17 00:34:31;;;;;;;14.27;2.45;;;12.30;99.90;;;;;;4954455;28;259021;-67
2022/07/17 00:36:57;;;;;;;9.52;2.00;;;12.30;99.90;;;;;;4952335;28;154133;-68
2022/07/17 00:39:23;;;;;;;10.30;2.40;;;12.30;99.90;;;;;;4949587;28;268941;-68
2022/07/17 00:41:50;;;;;;;8.00;2.17;;;12.30;99.90;;;;;;4941120;28;206722;-68
2022/07/17 00:44:16;;;;;;;10.55;2.35;;;12.20;99.90;;;;;;4948185;28;273064;-67
2022/07/17 00:46:42;;;;;;;9.13;2.33;;;12.20;99.90;;;;;;4939619;28;206283;-68
2022/07/17 00:49:09;;;;;;;8.27;1.90;;;12.10;99.90;;;;;;4965777;28;20051;-68
2022/07/17 00:51:35;;;;;;;10.90;2.20;;;12.10;99.90;;;;;;4933398;28;205378;-66
2022/07/17 00:54:03;;;;;;;13.15;2.45;;;12.10;99.90;;;;;;4967619;28;20065;-67
2022/07/17 00:56:29;;;;;;;26.20;2.65;;;12.10;99.90;;;;;;4934315;28;271417;-67
2022/07/17 00:58:56;;;;;;;9.85;2.30;;;12.00;99.90;;;;;;4970286;28;20057;-68
2022/07/17 01:01:22;;;;;;;11.48;2.45;;;12.00;99.90;;;;;;4936559;28;259513;-66
2022/07/17 01:03:48;;;;;;;13.38;2.25;;;12.00;99.90;;;;;;4966978;28;20062;-66
2022/07/17 01:06:14;;;;;;;10.63;2.53;;;11.90;99.90;;;;;;4911366;28;209648;-67
2022/07/17 01:08:40;;;;;;;11.30;2.20;;;11.90;99.90;;;;;;4967910;28;20057;-68
2022/07/17 01:11:08;;;;;;;11.75;2.58;;;11.90;99.90;;;;;;4946117;28;274595;-67
2022/07/17 01:13:35;;;;;;;10.73;2.60;;;11.80;99.90;;;;;;4979250;28;20050;-67
2022/07/17 01:16:01;;;;;;;10.10;2.35;;;11.80;99.90;;;;;;4934346;28;267641;-67
2022/07/17 01:18:27;;;;;;;10.77;2.45;;;11.80;99.90;;;;;;4965952;28;20059;-67
2022/07/17 01:20:53;;;;;;;11.05;2.85;;;11.70;99.90;;;;;;4929129;28;271903;-67
2022/07/17 01:23:20;;;;;;;11.05;2.70;;;11.70;99.90;;;;;;4955538;28;20452;-67
2022/07/17 01:25:47;;;;;;;12.30;2.90;;;11.60;99.90;;;;;;4930907;28;269507;-68
2022/07/17 01:28:14;;;;;;;9.65;2.90;;;11.60;99.90;;;;;;4957414;28;20058;-67
2022/07/17 01:30:50;;;;;;;12.77;3.35;;;11.60;99.90;;;;;;4923642;28;209631;-67
2022/07/17 01:33:18;;;;;;;12.05;2.90;;;11.60;99.90;;;;;;4958361;28;20070;-67
2022/07/17 01:35:44;;;;;;;11.52;2.67;;;11.50;99.90;;;;;;4918507;28;215033;-65
2022/07/17 01:38:11;;;;;;;10.05;3.00;;;11.50;99.90;;;;;;4981533;28;20046;-67
2022/07/17 01:40:37;;;;;;;13.00;2.88;;;11.50;99.90;;;;;;4936080;28;216120;-67
2022/07/17 01:43:03;;;;;;;19.13;4.05;;;11.50;99.90;;;;;;4979107;28;20523;-67
2022/07/17 01:45:29;;;;;;;9.75;3.10;;;11.50;99.90;;;;;;4917218;28;231087;-67
2022/07/17 01:47:55;;;;;;;11.60;3.40;;;11.40;99.90;;;;;;4957799;28;20054;-67
2022/07/17 01:50:21;;;;;;;12.27;3.70;;;11.40;99.90;;;;;;4930713;28;256554;-66
2022/07/17 01:52:49;;;;;;;13.43;3.60;;;11.40;99.90;;;;;;4970185;28;20043;-68
2022/07/17 01:55:15;;;;;;;12.40;3.47;;;11.30;99.90;;;;;;4965135;28;266254;-67
2022/07/17 01:57:42;;;;;;;10.80;3.25;;;11.30;99.90;;;;;;4952198;28;207039;-67
2022/07/17 02:00:14;;;;;;;15.13;3.78;;;11.30;99.90;;;;;;4962465;28;260922;-67
2022/07/17 02:02:40;;;;;;;10.18;3.42;;;11.30;99.90;;;;;;4928646;28;205826;-66
2022/07/17 02:05:07;;;;;;;11.45;3.20;;;11.20;99.90;;;;;;4950553;28;256088;-67
2022/07/17 02:07:36;;;;;;;11.80;3.35;;;11.20;99.90;;;;;;4937192;28;206011;-67
2022/07/17 02:10:03;;;;;;;11.40;3.25;;;11.20;99.90;;;;;;4965640;28;96085;-67
2022/07/17 02:12:29;;;;;;;11.70;3.10;;;11.20;99.90;;;;;;4942917;28;206056;-67
2022/07/17 02:14:55;;;;;;;12.43;3.50;;;11.20;99.90;;;;;;4957127;28;198830;-68
2022/07/17 02:17:21;;;;;;;13.18;3.78;;;11.20;99.90;;;;;;4920152;28;199807;-67
2022/07/17 02:19:47;;;;;;;10.50;3.63;;;11.20;99.90;;;;;;4956703;28;252492;-66
2022/07/17 02:22:13;;;;;;;10.88;3.50;;;11.20;99.90;;;;;;4949694;28;206677;-67
2022/07/17 02:24:39;;;;;;;9.38;3.10;;;11.20;99.90;;;;;;4954667;28;251706;-67
2022/07/17 02:27:06;;;;;;;14.07;3.88;;;11.20;99.90;;;;;;4943954;28;206164;-67
2022/07/17 02:29:32;;;;;;;12.20;3.50;;;11.10;99.90;;;;;;4951947;28;260892;-67
2022/07/17 02:31:58;;;;;;;10.32;3.60;;;11.20;99.90;;;;;;4942042;28;208166;-67
2022/07/17 02:34:24;;;;;;;13.55;3.80;;;11.20;99.90;;;;;;4947450;28;270913;-66
2022/07/17 02:36:50;;;;;;;12.98;3.75;;;11.20;99.90;;;;;;4954304;28;195119;-66
2022/07/17 02:39:16;;;;;;;10.60;3.40;;;11.20;99.90;;;;;;4953714;28;260894;-66
2022/07/17 02:41:42;;;;;;;13.80;3.97;;;11.20;99.90;;;;;;4947204;28;203383;-66
2022/07/17 02:44:08;;;;;;;12.48;3.92;;;11.10;99.90;;;;;;4970834;28;20400;-66
2022/07/17 02:46:34;;;;;;;13.70;3.80;;;11.20;99.90;;;;;;4909970;28;206591;-66
2022/07/17 02:49:01;;;;;;;11.63;3.38;;;11.20;99.90;;;;;;4973843;28;20059;-67
2022/07/17 02:51:27;;;;;;;13.82;3.72;;;11.10;99.90;;;;;;4923456;28;252325;-67
2022/07/17 02:53:53;;;;;;;13.70;3.85;;;11.10;99.90;;;;;;4964054;28;20066;-67
2022/07/17 02:56:19;;;;;;;13.85;4.00;;;11.10;99.90;;;;;;4933879;28;261392;-66
2022/07/17 02:58:45;;;;;;;10.63;3.40;;;11.10;99.90;;;;;;4970984;28;20073;-67
2022/07/17 03:01:11;;;;;;;14.23;3.78;;;11.10;99.90;;;;;;4932955;28;270191;-66
2022/07/17 03:03:37;;;;;;;11.85;3.67;;;11.10;99.90;;;;;;4970258;28;20050;-67
2022/07/17 03:06:04;;;;;;;9.68;3.40;;;11.10;99.90;;;;;;4920709;28;269981;-67
2022/07/17 03:08:30;;;;;;;10.77;3.50;;;11.10;99.90;;;;;;4977396;28;20051;-66
2022/07/17 03:10:56;;;;;;;11.70;3.17;;;11.00;99.90;;;;;;4928571;28;261781;-66
2022/07/17 03:13:22;;;;;;;15.45;3.92;;;11.10;99.90;;;;;;4975329;28;20496;-67
2022/07/17 03:15:48;;;;;;;11.80;3.55;;;11.10;99.90;;;;;;4930710;28;209781;-68
2022/07/17 03:18:14;;;;;;;12.20;3.42;;;11.00;99.90;;;;;;4968200;28;20062;-67
2022/07/17 03:20:40;;;;;;;10.80;3.42;;;11.00;99.90;;;;;;4924154;28;269484;-67
2022/07/17 03:23:06;;;;;;;15.02;3.47;;;11.00;99.90;;;;;;4936692;28;1093250;-67
2022/07/17 03:25:33;;;;;;;13.00;3.17;;;10.90;99.90;;;;;;4920749;28;260954;-66
2022/07/17 03:27:59;;;;;;;11.23;3.40;;;10.90;99.90;;;;;;4969450;28;20501;-66
2022/07/17 03:30:25;;;;;;;12.95;3.13;;;10.90;99.90;;;;;;4924625;28;262696;-66
2022/07/17 03:32:51;;;;;;;11.50;3.50;;;10.80;99.90;;;;;;4986598;28;20061;-67
2022/07/17 03:35:17;;;;;;;10.82;3.15;;;10.80;99.90;;;;;;4950410;28;208140;-66
2022/07/17 03:37:44;;;;;;;14.27;3.58;;;10.80;99.90;;;;;;4948738;28;56462;-66
2022/07/17 03:40:11;;;;;;;13.02;3.33;;;10.80;99.90;;;;;;4950686;28;205131;-66
2022/07/17 03:42:37;;;;;;;9.93;2.85;;;10.80;99.90;;;;;;4943849;28;209500;-67
2022/07/17 03:45:03;;;;;;;9.48;3.30;;;10.80;99.90;;;;;;4960181;28;252861;-66
2022/07/17 03:47:29;;;;;;;13.15;3.38;;;10.80;99.90;;;;;;4927715;28;217213;-66
2022/07/17 03:49:56;;;;;;;9.15;3.28;;;10.80;99.90;;;;;;4960975;28;243214;-66
2022/07/17 03:52:22;;;;;;;15.13;3.40;;;10.80;99.90;;;;;;4947879;28;208092;-67
2022/07/17 03:54:48;;;;;;;11.18;3.30;;;10.80;99.90;;;;;;4975261;28;72594;-67
2022/07/17 03:57:14;;;;;;;13.00;3.40;;;10.80;99.90;;;;;;4926564;28;210392;-66
2022/07/17 03:59:40;;;;;;;12.98;3.60;;;10.80;99.90;;;;;;4953455;28;267044;-67
2022/07/17 04:02:07;;;;;;;12.73;3.65;;;10.80;99.90;;;;;;4957310;28;205842;-66
2022/07/17 04:04:33;;;;;;;12.23;3.40;;;10.70;99.90;;;;;;4940983;28;264997;-67
2022/07/17 04:06:59;;;;;;;9.15;3.40;;;10.80;99.90;;;;;;4920133;28;210043;-66
2022/07/17 04:09:25;;;;;;;11.35;3.55;;;10.80;99.90;;;;;;4950726;28;269605;-67
2022/07/17 04:11:51;;;;;;;9.43;3.35;;;10.80;99.90;;;;;;4949584;28;206485;-67
2022/07/17 04:14:17;;;;;;;12.98;3.47;;;10.90;99.90;;;;;;4952678;28;249028;-66
2022/07/17 04:16:43;;;;;;;10.80;2.90;;;10.90;99.90;;;;;;4930046;28;207321;-66
2022/07/17 04:19:09;;;;;;;12.13;3.40;;;10.90;99.90;;;;;;4950068;28;266962;-66
2022/07/17 04:21:35;;;;;;;9.48;3.15;;;11.00;99.90;;;;;;4927552;28;148128;-66
2022/07/17 04:24:02;;;;;;;13.70;3.60;;;11.00;99.90;;;;;;4972128;28;20059;-66
2022/07/17 04:26:28;;;;;;;11.10;3.03;;;11.10;99.90;;;;;;4922761;28;209498;-66
2022/07/17 04:28:54;;;;;;;11.75;3.35;;;11.10;99.90;;;;;;4957588;28;20055;-66
2022/07/17 04:31:20;;;;;;;12.07;3.13;;;11.10;99.90;;;;;;4934016;28;266642;-66
2022/07/17 04:33:46;;;;;;;13.35;3.25;;;11.20;99.90;;;;;;4972746;28;20053;-67
2022/07/17 04:36:12;;;;;;;9.10;3.10;;;11.20;99.90;;;;;;4929326;28;266172;-67
2022/07/17 04:38:38;;;;;;;11.43;3.35;;;11.30;99.90;;;;;;4976957;28;20054;-66
2022/07/17 04:41:05;;;;;;;10.68;3.05;;;11.40;99.90;;;;;;4924468;28;253663;-67
2022/07/17 04:43:31;;;;;;;11.85;3.17;;;11.40;99.90;;;;;;4972425;28;20054;-66
2022/07/17 04:45:57;;;;;;;10.23;3.05;;;11.50;99.90;;;;;;4933342;28;255872;-66
2022/07/17 04:48:23;;;;;;;10.18;3.10;;;11.50;99.90;;;;;;4968392;28;20058;-66
2022/07/17 04:50:49;;;;;;;9.20;2.92;;;11.60;99.90;;;;;;4915512;28;252932;-66
2022/07/17 04:53:15;;;;;;;10.18;3.08;;;11.60;99.90;;;;;;4975852;28;20054;-66
2022/07/17 04:55:41;;;;;;;8.70;2.80;;;11.70;99.90;;;;;;4910504;28;206383;-66
2022/07/17 04:58:07;;;;;;;14.23;2.88;;;11.80;99.90;;;;;;4977859;28;20076;-66
2022/07/17 05:00:34;;;;;;;10.98;2.90;;;11.90;99.90;;;;;;4918796;28;265504;-66
2022/07/17 05:03:00;;;;;;;9.52;2.80;;;11.90;99.90;;;;;;4979606;28;20051;-66
2022/07/17 05:05:26;;;;;;;10.82;2.88;;;11.90;99.90;;;;;;4905472;28;205927;-66
2022/07/17 05:07:53;;;;;;;10.18;2.45;;;12.00;99.90;;;;;;4968758;28;20051;-67
2022/07/17 05:10:19;;;;;;;12.07;2.70;;;12.10;99.90;;;;;;4953590;28;283797;-66
2022/07/17 05:12:45;;;;;;;13.60;2.72;;;12.10;99.90;;;;;;4942834;28;209809;-66
2022/07/17 05:15:11;;;;;;;9.43;2.60;;;12.20;99.90;;;;;;4963647;28;263099;-66
2022/07/17 05:17:38;;;;;;;10.43;2.50;;;12.20;99.90;;;;;;4942635;28;206569;-66
2022/07/17 05:20:05;;;;;;;10.25;2.30;;;12.30;99.90;;;;;;4951840;28;282752;-66
2022/07/17 05:22:31;;;;;;;11.60;2.40;;;12.40;99.90;;;;;;4946395;28;210255;-67
2022/07/17 05:24:57;;;;;;;11.20;2.70;;;12.40;99.90;;;;;;4954823;28;232941;-67
2022/07/17 05:27:24;;;;;;;11.02;2.40;;;12.50;99.90;;;;;;4935351;28;207135;-67
2022/07/17 05:29:50;;;;;;;9.70;2.40;;;12.50;99.90;;;;;;4956084;28;271631;-67
2022/07/17 05:32:16;;;;;;;13.82;2.90;;;12.50;99.90;;;;;;4944395;28;212464;-67
2022/07/17 05:34:42;;;;;;;7.95;2.13;;;12.60;99.90;;;;;;4955135;28;168923;-67
2022/07/17 05:37:08;;;;;;;11.57;2.20;;;12.70;99.90;;;;;;4954540;28;134364;-67
2022/07/17 05:39:34;;;;;;;13.02;2.38;;;12.70;99.90;;;;;;4950048;28;178418;-67
2022/07/17 05:42:00;;;;;;;10.40;2.40;;;12.80;99.90;;;;;;4938690;28;211890;-67
2022/07/17 05:44:27;;;;;;;10.70;2.40;;;12.80;99.90;;;;;;4950991;28;256610;-66
2022/07/17 05:46:53;;;;;;;12.40;2.53;;;12.90;99.90;;;;;;4936797;28;206378;-67
2022/07/17 05:49:19;;;;;;;9.30;2.30;;;13.00;99.90;;;;;;4955877;28;257663;-67
2022/07/17 05:51:45;;;;;;;9.65;2.45;;;13.00;99.90;;;;;;4935755;28;213416;-65
2022/07/17 05:54:11;;;;;;;8.68;2.40;;;13.10;99.90;;;;;;4948040;28;260908;-65
2022/07/17 05:56:37;;;;;;;10.25;2.30;;;13.20;99.90;;;;;;4937601;28;221520;-66
2022/07/17 05:59:04;;;;;;;11.48;2.53;;;13.30;99.90;;;;;;4972704;28;20127;-67
2022/07/17 06:01:30;;;;;;;10.02;2.30;;;13.40;99.90;;;;;;4938333;28;258366;-66
2022/07/17 06:03:56;;;;;;;11.07;2.40;;;13.50;99.90;;;;;;4967428;28;20416;-67
2022/07/17 06:06:22;;;;;;;14.20;2.35;;;13.60;99.90;;;;;;4920624;28;248079;-66
2022/07/17 06:08:48;;;;;;;12.05;2.67;;;13.70;99.90;;;;;;4976131;28;20059;-67
2022/07/17 06:11:14;;;;;;;10.43;2.08;;;14.00;99.90;;;;;;4927141;28;259499;-67
2022/07/17 06:13:40;;;;;;;9.15;2.60;;;14.20;99.90;;;;;;4968378;28;20043;-67
2022/07/17 06:16:07;;;;;;;12.35;2.15;;;14.50;99.90;;;;;;4937668;28;261090;-67
2022/07/17 06:18:34;;;;;;;9.50;2.17;;;14.80;99.90;;;;;;4981216;28;20066;-67
2022/07/17 06:21:00;;;;;;;9.45;2.10;;;15.10;99.90;;;;;;4928683;28;253120;-67
2022/07/17 06:23:26;;;;;;;8.15;1.77;;;15.20;99.90;;;;;;4980362;28;20059;-67
2022/07/17 06:25:52;;;;;;;13.65;2.00;;;15.50;99.90;;;;;;4935019;28;259252;-67
2022/07/17 06:28:18;;;;;;;9.60;1.92;;;15.60;99.90;;;;;;4977015;28;20424;-67
2022/07/17 06:30:45;;;;;;;9.73;1.92;;;15.80;99.90;;;;;;4922166;28;256845;-68
2022/07/17 06:33:11;;;;;;;9.65;2.00;;;15.90;99.90;;;;;;4964158;28;20059;-68
2022/07/17 06:35:37;;;;;;;11.75;2.13;;;16.10;99.90;;;;;;4918001;28;253968;-67
2022/07/17 06:38:03;;;;;;;9.45;1.63;;;16.20;99.90;;;;;;4983820;28;20082;-68
2022/07/17 06:40:29;;;;;;;7.30;1.60;;;16.30;99.90;;;;;;4915922;28;244466;-67
2022/07/17 06:42:55;;;;;;;7.55;1.50;;;16.40;99.90;;;;;;4993822;28;20051;-68
2022/07/17 06:45:22;;;;;;;9.73;1.70;;;16.60;99.90;;;;;;4939931;28;255231;-65
2022/07/17 06:47:48;;;;;;;7.35;1.30;;;16.60;99.90;;;;;;4967876;28;20047;-68
2022/07/17 06:50:14;;;;;;;8.25;1.58;;;16.70;99.90;;;;;;4967927;28;260887;-68
2022/07/17 06:52:40;;;;;;;9.25;1.55;;;17.00;99.90;;;;;;4954905;28;153719;-68
2022/07/17 06:55:07;;;;;;;13.65;1.55;;;17.20;99.90;;;;;;4960714;28;268107;-67
2022/07/17 06:57:33;;;;;;;9.27;1.30;;;17.20;99.90;;;;;;4939887;28;206405;-68
2022/07/17 06:59:59;;;;;;;6.60;1.35;;;17.20;99.90;;;;;;4960862;28;251781;-67
2022/07/17 07:02:25;;;;;;;10.23;1.58;;;17.10;99.90;;;;;;4936300;28;206447;-68
2022/07/17 07:04:51;;;;;;;7.93;1.40;;;17.10;99.90;;;;;;4946947;28;146221;-67
2022/07/17 07:07:17;;;;;;;7.63;1.33;;;17.00;99.90;;;;;;4943480;28;213407;-67
2022/07/17 07:09:43;;;;;;;9.30;1.30;;;17.00;99.90;;;;;;4959444;28;98572;-68
2022/07/17 07:12:09;;;;;;;7.95;1.27;;;16.90;99.90;;;;;;4947593;28;206689;-69
2022/07/17 07:14:36;;;;;;;8.35;1.42;;;17.00;99.90;;;;;;4959434;28;267788;-68
2022/07/17 07:17:02;;;;;;;9.85;1.45;;;17.10;99.90;;;;;;4935683;28;219000;-68
2022/07/17 07:19:28;;;;;;;11.30;1.48;;;17.10;99.90;;;;;;4952569;28;264112;-68
2022/07/17 07:21:54;;;;;;;10.10;1.50;;;17.10;99.90;;;;;;4942833;28;206353;-68
2022/07/17 07:24:20;;;;;;;6.78;1.33;;;17.10;99.90;;;;;;4958497;28;262183;-68
2022/07/17 07:26:46;;;;;;;8.48;1.30;;;17.30;99.90;;;;;;4938387;28;208217;-68
2022/07/17 07:29:12;;;;;;;8.73;1.35;;;17.40;99.90;;;;;;4979666;28;268707;-67
2022/07/17 07:31:38;;;;;;;6.82;1.10;;;17.50;99.90;;;;;;4940442;28;205120;-69
2022/07/17 07:34:05;;;;;;;10.88;1.60;;;17.50;99.90;;;;;;4970324;28;20253;-68
2022/07/17 07:36:31;;;;;;;8.48;1.48;;;17.60;99.90;;;;;;4926653;28;269315;-68
2022/07/17 07:38:57;;;;;;;10.00;1.52;;;17.50;99.90;;;;;;4974539;28;20047;-68
2022/07/17 07:41:23;;;;;;;10.18;1.50;;;17.70;99.90;;;;;;4928315;28;270542;-69
2022/07/17 07:43:49;;;;;;;10.80;1.20;;;17.70;99.90;;;;;;4987833;28;20042;-69
2022/07/17 07:46:15;;;;;;;7.20;1.13;;;17.90;99.90;;;;;;4933276;28;266372;-69
2022/07/17 07:48:41;;;;;;;8.48;1.33;;;17.90;99.90;;;;;;4983115;28;20073;-68
2022/07/17 07:51:08;;;;;;;6.90;1.40;;;18.00;99.90;;;;;;4934269;28;259604;-69
2022/07/17 07:53:34;;;;;;;8.00;1.20;;;18.20;99.90;;;;;;4958399;28;20050;-69
2022/07/17 07:56:00;;;;;;;11.63;1.38;;;18.30;99.90;;;;;;4934161;28;270748;-68
2022/07/17 07:58:26;;;;;;;7.32;1.40;;;18.50;99.90;;;;;;4973516;28;20062;-69
2022/07/17 08:00:52;;;;;;;9.25;1.50;;;18.60;99.90;;;;;;4908017;28;248548;-68
2022/07/17 08:03:18;;;;;;;6.68;1.27;;;18.70;99.70;;;;;;4986791;28;20081;-69
2022/07/17 08:05:44;;;;;;;7.70;1.13;;;18.70;99.80;;;;;;4913272;28;152467;-69
2022/07/17 08:08:10;;;;;;;7.80;1.27;;;18.70;99.50;;;;;;4985600;28;20050;-69
2022/07/17 08:10:36;;;;;;;9.40;1.40;;;18.70;99.90;;;;;;4922931;28;259655;-69
2022/07/17 08:13:03;;;;;;;9.77;1.50;;;18.90;99.70;;;;;;4972948;28;20496;-70
2022/07/17 08:15:29;;;;;;;11.60;1.40;;;19.00;99.00;;;;;;4922607;28;269847;-69
2022/07/17 08:17:55;;;;;;;8.32;1.30;;;19.10;99.60;;;;;;4977882;28;20047;-70
2022/07/17 08:20:22;;;;;;;8.85;1.27;;;19.30;99.40;;;;;;4938586;28;261847;-68
2022/07/17 08:22:49;;;;;;;8.85;1.27;;;19.60;99.00;;;;;;4965976;28;205809;-70
2022/07/17 08:25:15;;;;;;;8.55;1.40;;;19.70;98.90;;;;;;4968094;28;271816;-69
2022/07/17 08:27:43;;;;;;;6.50;1.27;;;19.90;98.90;;;;;;4923664;28;206061;-69
2022/07/17 08:30:11;;;;;;;7.82;1.50;;;20.00;98.50;;;;;;4963542;28;253728;-70
2022/07/17 08:32:38;;;;;;;7.35;1.30;;;20.10;98.20;;;;;;4954017;28;135849;-70
2022/07/17 08:35:05;;;;;;;7.90;1.30;;;20.30;98.00;;;;;;4961112;28;252347;-70
2022/07/17 08:37:48;;;;;;;8.98;1.25;;;20.50;97.20;;;;;;4929051;28;204643;-70
2022/07/17 08:40:18;;;;;;;8.77;1.23;;;20.70;96.80;;;;;;4962964;28;178242;-70
2022/07/17 08:42:44;;;;;;;9.45;1.42;;;21.10;96.50;;;;;;4927159;28;206438;-70
2022/07/17 08:45:12;;;;;;;10.35;1.55;;;21.30;95.50;;;;;;4957890;28;267705;-74
2022/07/17 08:47:39;;;;;;;7.57;1.42;;;21.30;93.10;;;;;;4927781;28;209108;-71
2022/07/17 08:50:05;;;;;;;7.53;1.08;;;21.20;94.30;;;;;;4962653;28;264444;-70
2022/07/17 08:52:31;;;;;;;11.00;1.75;;;21.30;95.10;;;;;;4932219;28;205616;-70
2022/07/17 08:54:58;;;;;;;7.65;1.25;;;22.00;96.00;;;;;;4962369;28;251489;-70
2022/07/17 08:57:24;;;;;;;8.18;1.27;;;22.70;95.50;;;;;;4951231;28;206711;-71
2022/07/17 08:59:50;;;;;;;9.90;1.38;;;23.20;93.90;;;;;;4958351;28;266470;-71
2022/07/17 09:02:16;;;;;;;6.78;1.13;;;23.40;92.30;;;;;;4954257;28;207327;-71
2022/07/17 09:04:52;;;;;;;7.32;1.20;;;23.80;90.50;;;;;;4941497;28;256853;-71
2022/07/17 09:07:18;;;;;;;7.93;1.10;;;24.00;86.50;;;;;;4951610;28;206683;-71
2022/07/17 09:09:50;;;;;;;7.95;1.25;;;24.00;85.90;;;;;;4959523;28;251911;-71
2022/07/17 09:12:16;;;;;;;7.53;1.25;;;24.10;83.60;;;;;;4933021;28;218561;-71
2022/07/17 09:14:43;;;;;;;6.50;1.13;;;24.40;82.70;;;;;;4961422;28;257461;-71
2022/07/17 09:17:11;;;;;;;7.75;1.35;;;24.90;79.60;;;;;;4949457;28;209732;-71
2022/07/17 09:19:41;;;;;;;6.40;1.33;;;25.10;78.10;;;;;;4948526;28;243807;-71
2022/07/17 09:22:14;;;;;;;;;;;25.60;75.40;;;;;;4961280;28;179838;-71
2022/07/17 09:24:55;;;;;;;6.35;1.20;;;25.80;69.80;;;;;;4957830;28;261986;-72
2022/07/17 09:27:24;;;;;;;7.07;1.20;;;26.10;74.20;;;;;;4942966;28;205339;-71
2022/07/17 09:29:54;;;;;;;7.82;1.40;;;26.40;72.00;;;;;;4961516;28;249976;-71
2022/07/17 09:32:23;;;;;;;6.30;1.20;;;26.80;67.50;;;;;;4950123;28;214358;-70
2022/07/17 09:34:51;;;;;;;6.88;1.00;;;27.00;67.40;;;;;;4977911;28;103485;-72
2022/07/17 09:37:17;;;;;;;7.72;1.10;;;27.10;65.80;;;;;;4947469;28;213045;-73
2022/07/17 09:39:43;;;;;;;9.00;1.30;;;27.10;62.50;;;;;;4952640;28;291576;-72
2022/07/17 09:42:21;;;;;;;7.43;1.20;;;27.00;63.70;;;;;;4949480;28;206300;-73
2022/07/17 09:45:09;;;;;;;7.22;1.10;;;27.20;63.20;;;;;;4967689;28;193782;-73
2022/07/17 09:47:38;;;;;;;7.30;1.35;;;27.40;60.90;;;;;;4919285;28;166563;-74
2022/07/17 09:50:06;;;;;;;6.03;1.20;;;27.60;60.50;;;;;;4967826;28;274470;-73
2022/07/17 09:52:35;;;;;;;7.85;1.00;;;27.60;59.10;;;;;;4950784;28;210234;-73
2022/07/17 09:55:02;;;;;;;9.50;1.65;;;27.70;58.40;;;;;;4961564;28;251903;-73
2022/07/17 09:57:33;;;;;;;5.50;1.00;;;27.80;57.40;;;;;;4927208;28;210465;-72
2022/07/17 10:00:03;;;;;;;6.13;1.10;;;27.80;57.50;;;;;;4962104;28;270936;-71
2022/07/17 10:02:30;;;;;;;8.18;1.65;;;27.70;56.60;;;;;;4916185;28;236939;-70
2022/07/17 10:04:56;;;;;;;7.75;1.40;;;27.50;55.20;;;;;;4945580;28;265749;-71
2022/07/17 10:07:23;;;;;;;6.10;1.20;;;27.50;56.60;;;;;;4939755;28;210942;-70
2022/07/17 10:09:49;;;;;;;5.43;1.15;;;26.90;57.10;;;;;;4964508;28;217600;-70
2022/07/17 10:12:17;;;;;;;7.20;1.40;;;27.20;56.50;;;;;;4925143;28;187915;-69
2022/07/17 10:14:47;;;;;;;6.90;1.17;;;27.60;56.20;;;;;;4954635;28;213055;-71
2022/07/17 10:17:18;;;;;;;5.07;1.20;;;28.00;54.50;;;;;;4948538;28;212303;-72
2022/07/17 10:19:55;;;;;;;5.95;1.30;;;28.20;54.30;;;;;;4962808;28;210381;-71
2022/07/17 10:22:22;;;;;;;8.40;1.38;;;27.50;52.70;;;;;;4938917;28;207666;-71
2022/07/17 10:24:56;;;;;;;6.30;1.38;;;27.10;53.00;;;;;;4959245;28;275868;-71
2022/07/17 10:27:24;;;;;;;7.20;1.17;;;26.90;53.90;;;;;;4922995;28;206777;-71
2022/07/17 10:30:02;;;;;;;7.30;1.30;;;27.40;55.40;;;;;;4957295;28;232679;-72
2022/07/17 10:32:29;;;;;;;8.05;1.40;;;28.20;54.10;;;;;;4918506;28;221694;-71
2022/07/17 10:35:04;;;;;;;6.15;1.20;;;28.60;53.50;;;;;;4960610;28;264906;-70
2022/07/17 10:37:36;;;;;;;7.78;1.10;;;29.20;51.80;;;;;;4922826;28;208871;-71
2022/07/17 10:40:14;;;;;;;8.13;1.30;;;29.60;51.80;;;;;;4963345;28;49392;-71
2022/07/17 10:42:50;;;;;;;5.85;1.23;;;29.90;51.50;;;;;;4909451;28;205010;-71
2022/07/17 10:45:22;;;;;;;6.20;1.30;;;30.40;52.10;;;;;;4957186;28;182113;-71
2022/07/17 10:47:52;;;;;;;7.03;1.20;;;30.30;48.90;;;;;;4942446;28;205923;-69
2022/07/17 10:50:46;;;;;;;4.68;1.10;;;29.60;48.80;;;;;;4953984;28;255093;-69
2022/07/17 10:53:22;;;;;;;5.50;1.20;;;29.50;49.70;;;;;;4931997;28;104290;-69
2022/07/17 10:55:51;;;;;;;7.15;1.23;;;29.70;49.50;;;;;;4930152;28;243728;-71
2022/07/17 10:58:33;;;;;;;7.10;1.25;;;30.10;50.00;;;;;;4968608;28;20046;-69
2022/07/17 11:01:01;;;;;;;6.18;1.17;;;30.70;49.80;;;;;;4926912;28;258275;-71
2022/07/17 11:03:28;;;;;;;6.35;1.33;;;30.90;48.70;;;;;;4969442;28;20050;-73
2022/07/17 11:05:54;;;;;;;6.38;1.33;;;31.10;48.70;;;;;;4915417;28;254699;-70
2022/07/17 11:08:20;;;;;;;6.43;1.20;;;31.20;46.70;;;;;;4958974;28;20050;-70
2022/07/17 11:10:47;;;;;;;7.35;1.30;;;30.80;47.40;;;;;;4927765;28;265192;-70
2022/07/17 11:13:15;;;;;;;6.55;1.15;;;30.90;48.40;;;;;;4940296;28;20046;-70
2022/07/17 11:15:46;;;;;;;7.97;1.30;;;31.20;47.40;;;;;;4930617;28;261938;-69
2022/07/17 11:18:21;;;;;;;5.50;1.15;;;31.70;47.40;;;;;;4974851;28;20058;-68
2022/07/17 11:20:50;;;;;;;4.22;0.98;;;32.10;48.40;;;;;;4929785;28;221972;-69
2022/07/17 11:23:17;;;;;;;6.15;1.20;;;32.40;47.30;;;;;;4976579;28;20046;-71
2022/07/17 11:26:01;;;;;;;5.15;1.20;;;32.80;46.90;;;;;;4919374;28;247202;-72
2022/07/17 11:28:42;;;;;;;5.55;1.17;;;32.90;45.00;;;;;;4962144;28;20050;-71
2022/07/17 11:31:23;;;;;;;6.28;1.25;;;32.40;43.50;;;;;;4927587;28;329015;-70
2022/07/17 11:33:55;;;;;;;7.22;1.70;;;32.00;44.20;;;;;;4971974;28;20054;-72
2022/07/17 11:36:28;;;;;;;6.20;1.30;;;31.20;42.90;;;;;;4933854;28;253693;-69
2022/07/17 11:38:56;;;;;;;8.13;1.35;;;30.60;45.30;;;;;;4973180;28;20059;-68
2022/07/17 11:41:33;;;;;;;5.80;1.35;;;30.70;45.40;;;;;;4931548;28;254110;-69
2022/07/17 11:44:01;;;;;;;5.80;1.20;;;31.10;44.90;;;;;;4960316;28;20416;-70
2022/07/17 11:46:29;;;;;;;7.15;1.42;;;31.00;44.50;;;;;;4929439;28;256658;-68
2022/07/17 11:48:55;;;;;;;5.65;1.30;;;30.40;44.80;;;;;;4964071;28;20562;-70
2022/07/17 11:51:32;;;;;;;11.57;1.70;;;30.50;45.70;;;;;;4937520;28;272054;-69
2022/07/17 11:54:07;;;;;;;7.38;1.50;;;31.00;45.00;;;;;;4997987;28;20054;-70
2022/07/17 11:56:34;;;;;;;6.80;1.38;;;31.30;44.00;;;;;;4932983;28;205949;-70
2022/07/17 11:59:01;;;;;;;7.68;1.40;;;31.10;45.00;;;;;;4964210;28;20053;-70
2022/07/17 12:01:38;;;;;;;5.72;1.48;;;31.30;44.30;;;;;;4931029;28;259073;-71
2022/07/17 12:04:08;;;;;;;6.82;1.70;;;31.70;45.30;;;;;;4976602;28;20035;-70
2022/07/17 12:06:34;;;;;;;6.97;1.70;;;32.30;43.20;;;;;;4913912;28;205710;-70
2022/07/17 12:09:00;;;;;;;5.50;1.40;;;32.30;43.80;;;;;;4970343;28;20049;-72
2022/07/17 12:11:26;;;;;;;6.35;1.48;;;31.70;40.60;;;;;;4912414;28;216438;-71
2022/07/17 12:13:52;;;;;;;6.75;1.70;;;31.30;43.50;;;;;;4953958;28;20480;-71
2022/07/17 12:16:30;;;;;;;8.13;1.70;;;31.00;43.20;;;;;;4934778;28;260130;-71
2022/07/17 12:19:03;;;;;;;5.88;1.50;;;31.10;42.90;;;;;;4966706;28;20065;-74
2022/07/17 12:21:31;;;;;;;5.72;1.30;;;30.90;44.00;;;;;;4926940;28;223308;-74
2022/07/17 12:24:00;;;;;;;8.05;1.50;;;31.10;42.70;;;;;;4958153;28;20063;-73
2022/07/17 12:26:27;;;;;;;6.43;1.73;;;31.30;44.30;;;;;;4926643;28;209592;-72
2022/07/17 12:28:53;;;;;;;6.50;1.70;;;31.70;44.50;;;;;;4966632;28;20798;-74
2022/07/17 12:31:20;;;;;;;6.38;1.63;;;32.20;43.60;;;;;;4924200;28;244661;-74
2022/07/17 12:33:47;;;;;;;6.10;1.55;;;32.50;43.80;;;;;;4964819;28;20093;-73
2022/07/17 12:36:13;;;;;;;7.05;1.70;;;32.50;43.30;;;;;;4922835;28;206308;-73